LEBZ

Badajoz Airport

Badajoz, Spain
TAF LEBZ 141700Z 1418/1518 25004KT 9999 SCT030 TX14/1515Z TN05/1508Z BECMG 1503/1506 0500 FG VV001 BECMG 1509/1511 4000 BR BKN006 BECMG 1511/1514 9999 NSW SCT020
Issued Valid From Valid To
Dec-14 @ 17:00 UTC
(5 hours ago)
Dec-14 @ 18:00 UTC
(4 hours ago)
Dec-15 @ 18:00 UTC
(in 20 hours)
Dec-14 @ 18:00 to Dec-15 @ 03:00
TAF LEBZ 141700Z 1418/1518 25004KT 9999 SCT030 TX14/1515Z TN05/1508Z
Wind Visibility Clouds
250° at 4 knots 10,000+ meters
  • Scattered at 3,000' AGL
Becoming Dec-15 @ 03:00 to Dec-15 @ 09:00
BECMG 1503/1506 0500 FG VV001
Wind Visibility Clouds Conditions
250° at 4 knots 499 meters
  • Vertical visibility at 100' AGL
  • Fog
Becoming Dec-15 @ 09:00 to Dec-15 @ 11:00
BECMG 1509/1511 4000 BR BKN006
Wind Visibility Clouds Conditions
250° at 4 knots 4,007 meters
  • Broken at 600' AGL
  • Mist
Becoming Dec-15 @ 11:00 to Dec-15 @ 18:00
BECMG 1511/1514 9999 NSW SCT020
Wind Visibility Clouds Conditions
250° at 4 knots 10,000+ meters
  • Scattered at 2,000' AGL
TAF LEBZ 141700Z 1418/1518 25004KT 9999 SCT030 TX14/1515Z TN05/1508Z BECMG 1503/1506 0500 FG VV001 BECMG 1509/1511 4000 BR BKN006 BECMG 1511/1514 9999 NSW SCT020
Issued Dec-14 @ 17:00 UTC
(5 hours ago)
Valid From Dec-14 @ 18:00 UTC
(4 hours ago)
Valid To Dec-15 @ 18:00 UTC
(in 20 hours)
Dec-14 @ 18:00 - Dec-15 @ 03:00
Wind Visibility
250° at 4 knots 10,000+ meters
Clouds
  • Scattered at 3,000' AGL
Becoming Dec-15 @ 03:00 - Dec-15 @ 09:00
Wind Visibility
250° at 4 knots 499 meters
Clouds
  • Vertical visibility at 100' AGL
Conditions
  • Fog
Becoming Dec-15 @ 09:00 - Dec-15 @ 11:00
Wind Visibility
250° at 4 knots 4,007 meters
Clouds
  • Broken at 600' AGL
Conditions
  • Mist
Becoming Dec-15 @ 11:00 - Dec-15 @ 18:00
Wind Visibility
250° at 4 knots 10,000+ meters
Clouds
  • Scattered at 2,000' AGL
Conditions